Time;durP1;ratioP1;P1;durP2;ratioP2;P2;SDS_P1;SDS_P2;PMS_P1;PMS_P2;Temp;Humidity;BMP_temperature;BMP_pressure;BME280_temperature;BME280_humidity;BME280_pressure;Samples;Min_cycle;Max_cycle;Signal;HPM_P1;HPM_P2
2020/12/05 00:02:08;;;;;;;;;33.75;31.75;;;;;7.81;83.66;101589.31;3725613;37;21190;-62
2020/12/05 00:04:35;;;;;;;;;31.50;26.00;;;;;7.79;83.58;101590.47;3725481;38;21166;-62
2020/12/05 00:07:02;;;;;;;;;26.75;26.50;;;;;7.82;83.58;101590.16;3725508;37;21158;-62
2020/12/05 00:09:31;;;;;;;;;38.25;32.50;;;;;7.81;83.48;101594.72;3725367;38;21155;-61
2020/12/05 00:12:00;;;;;;;;;30.00;25.50;;;;;7.79;83.66;101593.19;3725372;38;21178;-62
2020/12/05 00:14:27;;;;;;;;;31.25;27.00;;;;;7.79;83.66;101596.72;3725331;37;21144;-62
2020/12/05 00:16:53;;;;;;;;;31.00;28.00;;;;;7.78;83.90;101596.88;3725452;38;21159;-62
2020/12/05 00:19:20;;;;;;;;;30.50;29.25;;;;;7.77;83.66;101596.00;3725425;38;21150;-62
2020/12/05 00:21:54;;;;;;;;;26.50;25.50;;;;;7.77;83.59;101595.16;3725578;37;21145;-62
2020/12/05 00:24:21;;;;;;;;;33.50;29.75;;;;;7.75;83.63;101600.69;3725657;38;21128;-62
2020/12/05 00:26:50;;;;;;;;;23.25;22.75;;;;;7.77;83.71;101604.09;3725555;38;21165;-63
2020/12/05 00:29:17;;;;;;;;;31.50;26.00;;;;;7.77;83.75;101606.78;3725574;37;21136;-63
2020/12/05 00:31:49;;;;;;;;;33.75;27.00;;;;;7.76;83.58;101607.78;3725602;38;21148;-63
2020/12/05 00:34:23;;;;;;;;;33.25;25.75;;;;;7.78;83.65;101611.19;3725249;38;21118;-63
2020/12/05 00:36:52;;;;;;;;;34.00;29.25;;;;;7.70;83.81;101592.16;3725207;37;21119;-63
2020/12/05 00:39:18;;;;;;;;;27.50;24.25;;;;;7.75;83.49;101610.63;3725366;37;21140;-63
2020/12/05 00:41:45;;;;;;;;;38.00;32.00;;;;;7.71;83.31;101612.72;3727904;38;21120;-64
2020/12/05 00:44:12;;;;;;;;;28.00;25.00;;;;;7.71;83.97;101604.66;3729165;38;21125;-63
2020/12/05 00:46:40;;;;;;;;;30.75;27.00;;;;;7.70;83.61;101619.13;3728732;37;21123;-63
2020/12/05 00:49:09;;;;;;;;;28.25;26.25;;;;;7.68;83.59;101612.16;3726786;38;21113;-62
2020/12/05 00:51:35;;;;;;;;;30.75;21.50;;;;;7.70;83.57;101624.50;3729240;38;21105;-63
2020/12/05 00:54:05;;;;;;;;;26.25;25.25;;;;;7.69;83.48;101619.25;3730203;37;21140;-62
2020/12/05 00:56:32;;;;;;;;;26.50;25.50;;;;;7.66;83.65;101612.31;3728767;37;21130;-63
2020/12/05 00:58:59;;;;;;;;;32.50;25.75;;;;;7.74;83.52;101622.38;3725163;37;21090;-62
2020/12/05 01:01:27;;;;;;;;;34.00;30.50;;;;;7.72;83.70;101619.81;3724992;38;21209;-64
2020/12/05 01:03:53;;;;;;;;;28.25;27.50;;;;;7.72;83.70;101624.38;3725068;38;21105;-64
2020/12/05 01:06:20;;;;;;;;;25.50;24.00;;;;;7.73;83.49;101624.22;3725480;38;21100;-63
2020/12/05 01:08:47;;;;;;;;;30.50;23.75;;;;;7.76;83.28;101625.78;3725402;38;21093;-62
2020/12/05 01:11:21;;;;;;;;;30.50;29.50;;;;;7.71;83.35;101620.81;3725331;37;21089;-62
2020/12/05 01:13:49;;;;;;;;;33.25;30.25;;;;;7.71;83.27;101631.59;3725247;38;21024;-63
2020/12/05 01:16:17;;;;;;;;;33.75;30.75;;;;;7.67;83.36;101632.00;3725694;37;21089;-63
2020/12/05 01:18:46;;;;;;;;;26.50;25.00;;;;;7.66;82.85;101627.63;3725832;38;21086;-63
2020/12/05 01:21:17;;;;;;;;;27.50;25.00;;;;;7.64;82.91;101634.00;3725848;37;21088;-63
2020/12/05 01:23:44;;;;;;;;;30.25;27.00;;;;;7.63;82.75;101626.03;3725162;38;21062;-62
2020/12/05 01:26:11;;;;;;;;;23.50;21.00;;;;;7.64;83.02;101635.84;3725561;38;21180;-63
2020/12/05 01:28:39;;;;;;;;;27.00;23.50;;;;;7.62;83.04;101627.03;3725542;38;21039;-62
2020/12/05 01:31:05;;;;;;;;;28.25;22.75;;;;;7.59;82.80;101628.16;3725688;37;21081;-61
2020/12/05 01:33:33;;;;;;;;;28.00;24.25;;;;;7.53;82.71;101620.63;3725610;37;21076;-62
2020/12/05 01:36:00;;;;;;;;;33.25;26.00;;;;;7.53;82.96;101623.31;3725512;37;21050;-62
2020/12/05 01:38:28;;;;;;;;;28.50;22.75;;;;;7.54;82.83;101630.41;3725535;37;21082;-62
2020/12/05 01:40:58;;;;;;;;;32.00;30.75;;;;;7.50;82.85;101622.75;3725623;37;21064;-62
2020/12/05 01:43:27;;;;;;;;;32.25;28.50;;;;;7.51;83.07;101621.75;3725274;37;21019;-63
2020/12/05 01:45:54;;;;;;;;;34.50;27.75;;;;;7.50;82.76;101622.75;3725502;38;21300;-63
2020/12/05 01:48:22;;;;;;;;;32.50;24.50;;;;;7.48;82.77;101627.41;3725401;38;21048;-62
2020/12/05 01:50:53;;;;;;;;;32.00;27.00;;;;;7.46;82.74;101619.47;3725569;37;21042;-63
2020/12/05 01:53:19;;;;;;;;;27.25;24.25;;;;;7.45;82.99;101616.91;3725079;37;21037;-63
2020/12/05 01:55:48;;;;;;;;;28.75;25.25;;;;;7.42;82.67;101622.59;3725361;37;21038;-63
2020/12/05 01:58:16;;;;;;;;;28.00;25.75;;;;;7.41;82.60;101628.94;3724993;38;21002;-63
2020/12/05 02:00:45;;;;;;;;;30.50;28.25;;;;;7.43;82.63;101635.06;3725489;38;21033;-63
2020/12/05 02:03:16;;;;;;;;;27.50;24.00;;;;;7.43;82.66;101632.38;3725214;37;20997;-63
2020/12/05 02:06:09;;;;;;;;;31.50;26.25;;;;;7.42;82.40;101631.50;3726180;37;21007;-63
2020/12/05 02:09:02;;;;;;;;;34.50;29.00;;;;;7.43;82.34;101635.91;3725537;37;21031;-62
2020/12/05 02:11:38;;;;;;;;;29.75;24.50;;;;;7.42;82.53;101628.81;3725223;38;21034;-62
2020/12/05 02:14:08;;;;;;;;;32.00;25.25;;;;;7.44;82.52;101642.16;3725585;38;21042;-63
2020/12/05 02:16:39;;;;;;;;;16.75;16.25;;;;;7.43;82.37;101638.59;3725552;37;21029;-62
2020/12/05 02:19:12;;;;;;;;;27.50;23.00;;;;;7.41;82.43;101637.88;3725102;38;20995;-61
2020/12/05 02:21:41;;;;;;;;;41.75;31.50;;;;;7.41;82.23;101640.59;3725522;38;20937;-61
2020/12/05 02:24:11;;;;;;;;;35.50;29.25;;;;;7.44;82.47;101640.31;3725376;38;21011;-60
2020/12/05 02:26:39;;;;;;;;;37.25;28.25;;;;;7.45;81.87;101643.84;3725434;37;20999;-62
2020/12/05 02:29:07;;;;;;;;;34.25;31.75;;;;;7.43;82.07;101649.38;3725447;38;20992;-61
2020/12/05 02:31:36;;;;;;;;;35.25;31.50;;;;;7.48;82.03;101647.13;3725517;38;20960;-62
2020/12/05 02:34:03;;;;;;;;;26.50;25.25;;;;;7.28;81.78;101611.19;3725706;37;20984;-62
2020/12/05 02:36:36;;;;;;;;;25.00;24.00;;;;;7.48;81.52;101635.50;3725449;38;20970;-63
2020/12/05 02:39:11;;;;;;;;;35.00;28.25;;;;;7.46;81.78;101640.16;3725157;38;20972;-63
2020/12/05 02:41:42;;;;;;;;;30.00;27.00;;;;;7.42;81.59;101641.44;3725220;37;20905;-64
2020/12/05 02:44:08;;;;;;;;;24.75;21.00;;;;;7.38;81.24;101640.84;3725120;37;20959;-64
2020/12/05 02:46:36;;;;;;;;;28.75;24.75;;;;;7.32;81.22;101636.84;3725664;38;20953;-63
2020/12/05 02:49:03;;;;;;;;;22.75;22.75;;;;;7.34;81.62;101633.19;3725548;38;20964;-62
2020/12/05 02:51:29;;;;;;;;;26.75;22.00;;;;;7.35;81.36;101640.28;3725564;38;20973;-64
2020/12/05 02:53:56;;;;;;;;;28.75;24.00;;;;;7.36;81.15;101650.06;3725410;38;20979;-63
2020/12/05 02:56:24;;;;;;;;;25.75;21.75;;;;;7.36;81.29;101648.22;3725563;38;20966;-62
2020/12/05 02:58:51;;;;;;;;;24.25;23.25;;;;;7.36;80.65;101652.75;3725051;38;20938;-63
2020/12/05 03:01:18;;;;;;;;;30.50;24.25;;;;;7.31;80.98;101645.06;3725527;38;20949;-62
2020/12/05 03:03:44;;;;;;;;;24.50;21.25;;;;;7.30;80.59;101660.37;3725473;38;20915;-62
2020/12/05 03:06:11;;;;;;;;;26.00;22.50;;;;;7.29;80.69;101655.13;3725584;37;20952;-62
2020/12/05 03:08:39;;;;;;;;;24.25;16.50;;;;;7.29;80.47;101655.97;3725155;38;20950;-62
2020/12/05 03:11:08;;;;;;;;;21.25;18.50;;;;;7.29;80.81;101644.34;3725554;38;20932;-63
2020/12/05 03:13:37;;;;;;;;;27.00;25.00;;;;;7.28;80.55;101646.19;3725581;38;20932;-63
2020/12/05 03:16:07;;;;;;;;;26.25;24.00;;;;;7.21;80.42;101628.06;3725489;38;20919;-64
2020/12/05 03:18:34;;;;;;;;;20.75;17.50;;;;;7.30;80.76;101637.97;3725567;38;20909;-64
2020/12/05 03:21:00;;;;;;;;;26.25;21.50;;;;;7.26;80.29;101633.87;3725711;38;20914;-64
2020/12/05 03:23:27;;;;;;;;;24.00;20.50;;;;;7.35;80.50;101646.50;3725537;37;20918;-63
2020/12/05 03:25:56;;;;;;;;;27.25;25.25;;;;;7.36;80.23;101653.59;3725721;37;20929;-62
2020/12/05 03:28:25;;;;;;;;;24.00;21.25;;;;;7.29;80.34;101644.34;3725538;38;20924;-63
2020/12/05 03:30:52;;;;;;;;;30.00;22.00;;;;;7.34;80.31;101668.19;3725320;37;20883;-63
2020/12/05 03:33:20;;;;;;;;;22.25;19.50;;;;;7.35;80.04;101665.34;3725691;38;20883;-63
2020/12/05 03:35:46;;;;;;;;;22.75;19.75;;;;;7.35;79.93;101657.28;3725719;37;20906;-64
2020/12/05 03:38:13;;;;;;;;;25.00;20.50;;;;;7.33;79.80;101659.25;3725859;37;20760;-63
2020/12/05 03:40:40;;;;;;;;;20.00;19.25;;;;;7.25;79.81;101656.41;3726445;38;20903;-62
2020/12/05 03:43:07;;;;;;;;;24.25;21.50;;;;;7.21;79.64;101647.75;3733651;37;20903;-62
2020/12/05 03:45:34;;;;;;;;;20.25;18.00;;;;;7.23;79.71;101663.78;3728900;37;20912;-63
2020/12/05 03:48:02;;;;;;;;;23.25;20.50;;;;;7.26;79.81;101656.28;3730831;38;20885;-63
2020/12/05 03:50:29;;;;;;;;;27.25;22.50;;;;;7.22;79.64;101662.06;3731685;38;20907;-61
2020/12/05 03:53:01;;;;;;;;;20.25;17.50;;;;;7.22;79.85;101667.44;3727270;37;20897;-61
2020/12/05 03:55:31;;;;;;;;;20.25;18.00;;;;;7.21;79.37;101673.81;3725680;37;20891;-61
2020/12/05 03:58:02;;;;;;;;;24.75;22.25;;;;;7.23;79.11;101675.41;3725204;37;20870;-63
2020/12/05 04:00:33;;;;;;;;;24.75;20.25;;;;;7.21;78.90;101679.22;3725925;37;20893;-61
2020/12/05 04:02:59;;;;;;;;;23.50;21.25;;;;;7.17;79.07;101675.94;3725757;38;20880;-62
2020/12/05 04:05:26;;;;;;;;;21.00;18.50;;;;;7.14;78.82;101686.97;3725674;37;20890;-62
2020/12/05 04:07:52;;;;;;;;;21.50;17.50;;;;;7.11;78.78;101676.47;3725622;38;20869;-62
2020/12/05 04:10:19;;;;;;;;;22.75;20.25;;;;;7.08;78.80;101681.25;3725617;37;20870;-63
2020/12/05 04:12:45;;;;;;;;;20.25;18.50;;;;;7.02;79.20;101687.19;3725731;37;20861;-62
2020/12/05 04:15:12;;;;;;;;;22.75;18.25;;;;;7.03;79.15;101688.88;3725664;38;20866;-62
2020/12/05 04:17:40;;;;;;;;;25.75;21.75;;;;;7.02;79.33;101697.94;3725635;38;20876;-64
2020/12/05 04:20:08;;;;;;;;;20.75;17.75;;;;;6.97;79.17;101699.19;3725636;38;20836;-62
2020/12/05 04:22:34;;;;;;;;;28.00;22.50;;;;;7.00;79.51;101703.47;3725676;37;20865;-64
2020/12/05 04:25:01;;;;;;;;;18.50;17.50;;;;;6.98;78.97;101702.75;3725865;37;20868;-63
2020/12/05 04:27:27;;;;;;;;;25.00;22.75;;;;;6.92;78.76;101714.03;3725714;37;20832;-62
2020/12/05 04:29:55;;;;;;;;;21.25;16.00;;;;;6.84;78.96;101721.91;3725718;37;20855;-62
2020/12/05 04:32:21;;;;;;;;;23.50;20.75;;;;;6.77;79.14;101718.88;3725734;37;20819;-62
2020/12/05 04:34:51;;;;;;;;;21.00;20.00;;;;;6.77;79.82;101723.41;3725963;37;20798;-64
2020/12/05 04:37:18;;;;;;;;;27.00;23.50;;;;;6.72;79.69;101720.28;3725639;37;20809;-62
2020/12/05 04:39:47;;;;;;;;;28.00;24.00;;;;;6.70;79.71;101727.63;3726523;38;20791;-65
2020/12/05 04:42:15;;;;;;;;;23.00;21.25;;;;;6.58;79.90;101713.38;3726391;37;20782;-65
2020/12/05 04:44:43;;;;;;;;;18.00;17.25;;;;;6.62;79.87;101728.28;3725803;37;20799;-63
2020/12/05 04:47:16;;;;;;;;;16.50;15.00;;;;;6.56;79.79;101728.78;3724890;37;20820;-62
2020/12/05 04:49:43;;;;;;;;;20.75;17.75;;;;;6.56;79.78;101736.84;3725575;38;20796;-62
2020/12/05 04:52:25;;;;;;;;;14.50;12.50;;;;;6.49;80.12;101727.59;3725640;37;20791;-63
2020/12/05 04:54:55;;;;;;;;;17.25;14.25;;;;;6.47;80.15;101738.47;3725660;38;20755;-63
2020/12/05 04:57:23;;;;;;;;;22.75;20.50;;;;;6.43;80.17;101736.19;3725260;37;20824;-64
2020/12/05 04:59:52;;;;;;;;;25.25;19.50;;;;;6.39;80.11;101729.34;3725648;37;20824;-63
2020/12/05 05:02:30;;;;;;;;;18.50;17.00;;;;;6.36;80.37;101733.12;3725758;37;20787;-62
2020/12/05 05:04:59;;;;;;;;;17.75;16.75;;;;;6.35;80.43;101731.44;3725298;37;20774;-63
2020/12/05 05:07:26;;;;;;;;;20.50;18.25;;;;;6.36;80.31;101732.28;3725164;38;20730;-62
2020/12/05 05:10:15;;;;;;;;;16.75;13.25;;;;;6.34;80.71;101734.25;3725598;37;20771;-63
2020/12/05 05:12:43;;;;;;;;;16.50;16.00;;;;;6.29;80.74;101738.16;3725308;37;20744;-61
2020/12/05 05:15:21;;;;;;;;;23.50;20.50;;;;;6.28;80.75;101744.53;3725231;38;20733;-63
2020/12/05 05:17:51;;;;;;;;;21.00;18.25;;;;;6.27;80.54;101756.25;3725192;37;20767;-63
2020/12/05 05:20:45;;;;;;;;;18.75;13.25;;;;;6.19;80.64;101748.00;3725213;38;20745;-63
2020/12/05 05:23:20;;;;;;;;;16.50;13.75;;;;;6.23;80.30;101760.22;3725227;38;20706;-63
2020/12/05 05:25:57;;;;;;;;;17.25;15.75;;;;;6.20;80.40;101765.00;3725427;37;20774;-62
2020/12/05 05:28:38;;;;;;;;;20.25;18.25;;;;;6.11;80.54;101761.22;3724856;38;20701;-62
2020/12/05 05:31:30;;;;;;;;;21.75;19.50;;;;;6.16;80.64;101772.44;3725034;37;20740;-63
2020/12/05 05:33:58;;;;;;;;;20.25;17.25;;;;;6.19;80.63;101769.50;3725216;37;20720;-64
2020/12/05 05:36:29;;;;;;;;;22.00;18.25;;;;;6.17;80.97;101770.62;3725571;38;20744;-63
2020/12/05 05:39:17;;;;;;;;;18.50;16.75;;;;;6.17;81.13;101776.84;3725711;37;20709;-63
2020/12/05 05:41:50;;;;;;;;;18.50;16.00;;;;;6.15;80.68;101778.81;3725857;37;20733;-64
2020/12/05 05:44:21;;;;;;;;;28.50;24.25;;;;;6.14;80.89;101773.56;3725300;38;20738;-64
2020/12/05 05:46:50;;;;;;;;;27.25;24.75;;;;;6.17;80.69;101781.38;3725799;38;20698;-64
2020/12/05 05:49:31;;;;;;;;;23.50;18.50;;;;;6.18;80.97;101773.19;3725543;37;20713;-63
2020/12/05 05:52:01;;;;;;;;;23.00;16.75;;;;;6.18;80.91;101780.38;3725740;37;20735;-62
2020/12/05 05:54:31;;;;;;;;;19.75;17.00;;;;;6.08;80.83;101768.66;3726003;37;20705;-62
2020/12/05 05:57:07;;;;;;;;;20.75;18.25;;;;;6.07;80.33;101789.31;3725785;37;20715;-62
2020/12/05 05:59:41;;;;;;;;;23.00;17.25;;;;;5.84;80.52;101749.97;3725698;38;20678;-62
2020/12/05 06:02:11;;;;;;;;;13.25;12.25;;;;;5.98;80.79;101776.63;3725484;37;20704;-63
2020/12/05 06:04:39;;;;;;;;;19.00;18.25;;;;;6.03;80.62;101789.69;3725728;37;20649;-64
2020/12/05 06:07:14;;;;;;;;;17.25;16.50;;;;;5.94;80.63;101781.38;3725731;37;20711;-62
2020/12/05 06:09:48;;;;;;;;;14.25;13.00;;;;;5.96;80.34;101794.69;3725676;37;20675;-60
2020/12/05 06:12:23;;;;;;;;;19.00;15.00;;;;;5.94;80.39;101792.13;3725662;38;20672;-63
2020/12/05 06:14:51;;;;;;;;;16.50;15.50;;;;;5.92;80.29;101795.94;3725070;38;20729;-62
2020/12/05 06:17:19;;;;;;;;;15.75;14.00;;;;;5.88;80.03;101789.06;3725602;38;20702;-63
2020/12/05 06:19:48;;;;;;;;;18.25;15.75;;;;;5.90;80.40;101809.47;3725516;37;20665;-63
2020/12/05 06:22:42;;;;;;;;;20.75;14.25;;;;;5.93;80.29;101803.00;3725537;38;20698;-63
2020/12/05 06:25:16;;;;;;;;;15.00;13.00;;;;;5.83;80.00;101802.00;3725725;37;20693;-61
2020/12/05 06:28:15;;;;;;;;;13.75;13.50;;;;;5.81;80.42;101803.94;3725856;38;20671;-64
2020/12/05 06:30:46;;;;;;;;;21.75;20.25;;;;;5.79;79.94;101811.28;3725644;37;20666;-63
2020/12/05 06:33:39;;;;;;;;;19.25;18.50;;;;;5.76;80.35;101819.56;3725970;37;20662;-64
2020/12/05 06:36:41;;;;;;;;;16.50;15.00;;;;;5.82;80.10;101824.47;3726106;37;20761;-63
2020/12/05 06:39:13;;;;;;;;;17.00;15.50;;;;;5.72;80.01;101828.88;3731336;38;20642;-63
2020/12/05 06:41:47;;;;;;;;;23.75;19.75;;;;;5.78;79.94;101831.06;3727895;37;20691;-63
2020/12/05 06:44:36;;;;;;;;;17.75;17.25;;;;;5.70;79.66;101844.28;3730394;38;20638;-65
2020/12/05 06:47:21;;;;;;;;;12.00;11.50;;;;;5.73;79.89;101835.94;3731938;38;20905;-63
2020/12/05 06:49:49;;;;;;;;;15.00;13.50;;;;;5.64;79.43;101837.53;3725776;38;20621;-64
2020/12/05 06:52:47;;;;;;;;;10.75;10.00;;;;;5.54;79.52;101848.16;3725795;37;20665;-63
2020/12/05 06:55:15;;;;;;;;;16.75;14.75;;;;;5.49;79.80;101853.03;3725670;38;20635;-62
2020/12/05 06:57:44;;;;;;;;;14.50;13.25;;;;;5.49;80.15;101854.84;3725769;37;20693;-63
2020/12/05 07:00:25;;;;;;;;;16.50;14.50;;;;;5.41;79.49;101858.13;3725292;37;20651;-63
2020/12/05 07:03:18;;;;;;;;;12.00;11.00;;;;;5.36;79.47;101860.31;3726040;37;20655;-62
2020/12/05 07:05:46;;;;;;;;;14.50;12.00;;;;;5.32;79.67;101848.94;3725748;37;20652;-63
2020/12/05 07:08:30;;;;;;;;;10.75;9.75;;;;;5.35;79.81;101858.59;3725603;37;20590;-60
2020/12/05 07:11:03;;;;;;;;;10.00;8.25;;;;;5.24;79.55;101837.94;3725710;38;20587;-62
2020/12/05 07:13:41;;;;;;;;;14.75;11.00;;;;;5.31;79.77;101860.66;3725179;37;20571;-63
2020/12/05 07:16:40;;;;;;;;;15.25;12.50;;;;;5.35;79.65;101863.97;3725871;37;20602;-63
2020/12/05 07:19:13;;;;;;;;;10.50;10.00;;;;;5.24;79.38;101855.88;3725092;37;20570;-63
2020/12/05 07:21:40;;;;;;;;;13.25;12.50;;;;;5.36;79.56;101867.50;3724867;37;20537;-63
2020/12/05 07:24:07;;;;;;;;;14.50;12.00;;;;;5.30;79.56;101871.50;3725529;37;20598;-63
2020/12/05 07:26:37;;;;;;;;;18.00;13.25;;;;;5.23;79.25;101872.94;3725504;38;20567;-63
2020/12/05 07:29:08;;;;;;;;;16.00;13.50;;;;;5.12;79.63;101859.53;3725659;38;20578;-63
2020/12/05 07:31:36;;;;;;;;;16.00;11.75;;;;;5.21;79.81;101881.13;3725637;37;20606;-63
2020/12/05 07:34:05;;;;;;;;;11.00;9.00;;;;;5.22;79.58;101880.16;3725743;38;20566;-63
2020/12/05 07:36:38;;;;;;;;;11.00;8.50;;;;;5.10;79.39;101874.88;3725301;37;20544;-63
2020/12/05 07:39:09;;;;;;;;;15.25;12.25;;;;;5.18;79.45;101872.47;3725207;38;20545;-62
2020/12/05 07:41:35;;;;;;;;;11.25;8.25;;;;;5.06;78.94;101881.44;3725709;38;20591;-63
2020/12/05 07:44:02;;;;;;;;;11.00;9.75;;;;;5.03;79.39;101877.16;3725817;37;20508;-62
2020/12/05 07:46:32;;;;;;;;;7.50;4.50;;;;;5.13;79.69;101883.56;3725836;37;20519;-64
2020/12/05 07:49:01;;;;;;;;;14.50;12.50;;;;;5.08;79.09;101885.72;3726343;38;20464;-87
2020/12/05 07:51:28;;;;;;;;;10.75;10.75;;;;;5.14;79.49;101893.31;3726422;37;20587;-63
2020/12/05 07:53:55;;;;;;;;;17.25;12.75;;;;;4.98;79.19;101869.47;3726085;38;20535;-63
2020/12/05 07:56:25;;;;;;;;;15.50;11.75;;;;;5.04;79.32;101902.19;3725964;37;20571;-64
2020/12/05 07:58:56;;;;;;;;;14.75;14.00;;;;;5.68;80.28;101899.94;3726055;38;20506;-60
2020/12/05 08:02:08;;;;;;;;;14.75;11.00;;;;;5.73;79.40;101886.97;3726742;37;20535;-61
2020/12/05 08:04:52;;;;;;;;;17.50;14.25;;;;;5.94;78.17;101894.25;3725593;37;20507;-60
2020/12/05 08:07:35;;;;;;;;;17.25;16.00;;;;;6.15;77.51;101898.91;3724802;38;20531;-59
2020/12/05 08:10:08;;;;;;;;;16.25;12.75;;;;;6.01;77.18;101910.75;3724920;38;20805;-61
2020/12/05 08:13:06;;;;;;;;;15.50;15.50;;;;;5.45;76.71;101875.72;3725587;37;20505;-63
2020/12/05 08:15:34;;;;;;;;;11.25;11.00;;;;;5.42;76.63;101897.41;3725753;37;20488;-64
2020/12/05 08:18:04;;;;;;;;;15.75;12.50;;;;;5.44;77.65;101914.28;3727264;37;20511;-66
2020/12/05 08:20:32;;;;;;;;;11.50;10.00;;;;;5.42;77.95;101918.03;3725932;37;20504;-62
2020/12/05 08:23:02;;;;;;;;;12.00;11.00;;;;;5.31;77.64;101921.53;3725834;37;20485;-64
2020/12/05 08:25:29;;;;;;;;;16.00;14.75;;;;;5.32;77.79;101913.38;3725855;38;20503;-63
2020/12/05 08:27:57;;;;;;;;;16.75;14.75;;;;;5.41;78.01;101916.34;3725502;37;20527;-62
2020/12/05 08:30:25;;;;;;;;;14.25;12.00;;;;;5.38;76.87;101912.06;3725815;37;20484;-61
2020/12/05 08:33:11;;;;;;;;;11.75;11.00;;;;;5.41;77.83;101908.28;3725540;37;20490;-62
2020/12/05 08:35:38;;;;;;;;;13.75;11.50;;;;;5.62;77.48;101899.44;3725188;37;20407;-67
2020/12/05 08:38:05;;;;;;;;;16.00;13.00;;;;;5.71;77.24;101924.72;3725542;38;20488;-65
2020/12/05 08:40:32;;;;;;;;;14.00;12.75;;;;;5.68;76.64;101918.75;3725887;37;20580;-67
2020/12/05 08:43:00;;;;;;;;;15.25;14.75;;;;;5.80;76.88;101913.25;3725449;37;20517;-67
2020/12/05 08:45:26;;;;;;;;;12.00;11.25;;;;;5.63;76.52;101917.25;3726142;37;20749;-64
2020/12/05 08:47:53;;;;;;;;;14.50;12.00;;;;;5.76;76.60;101913.59;3725962;37;20428;-62
2020/12/05 08:50:24;;;;;;;;;12.75;12.25;;;;;5.72;76.58;101914.84;3725160;38;20386;-64
2020/12/05 08:52:54;;;;;;;;;12.50;11.00;;;;;5.69;75.87;101897.13;3725923;37;20444;-63
2020/12/05 08:55:21;;;;;;;;;13.00;12.00;;;;;5.86;76.65;101912.75;3726040;37;20430;-62
2020/12/05 08:58:01;;;;;;;;;17.25;14.25;;;;;5.92;76.39;101914.16;3725953;37;20412;-60
2020/12/05 09:00:30;;;;;;;;;13.75;13.75;;;;;6.13;76.10;101920.53;3726215;37;20426;-64
2020/12/05 09:03:04;;;;;;;;;17.75;13.00;;;;;6.10;75.46;101917.22;3726160;37;20468;-61
2020/12/05 09:05:31;;;;;;;;;18.75;17.00;;;;;6.20;75.68;101921.75;3725725;37;20408;-61
2020/12/05 09:08:02;;;;;;;;;14.00;14.00;;;;;6.32;75.39;101927.97;3725951;37;20473;-64
2020/12/05 09:10:29;;;;;;;;;15.25;14.00;;;;;6.28;74.69;101930.03;3725823;38;20458;-62
2020/12/05 09:13:06;;;;;;;;;17.50;14.75;;;;;6.24;74.91;101933.94;3725662;38;20436;-62
2020/12/05 09:15:35;;;;;;;;;17.00;14.75;;;;;6.26;74.36;101931.13;3725846;38;20438;-62
2020/12/05 09:18:08;;;;;;;;;19.50;14.00;;;;;6.27;74.31;101925.63;3725299;37;20435;-63
2020/12/05 09:20:44;;;;;;;;;16.25;13.50;;;;;6.20;74.16;101920.91;3725830;38;20455;-64
2020/12/05 09:23:14;;;;;;;;;13.25;11.25;;;;;6.21;74.85;101920.78;3725979;37;20459;-64
2020/12/05 09:25:42;;;;;;;;;17.00;15.25;;;;;6.28;74.69;101916.59;3725749;37;20458;-62
2020/12/05 09:28:19;;;;;;;;;14.00;14.00;;;;;6.40;74.49;101921.97;3725638;38;20438;-63
2020/12/05 09:30:46;;;;;;;;;14.50;13.00;;;;;6.30;73.57;101916.47;3728232;37;20465;-63
2020/12/05 09:33:15;;;;;;;;;15.50;12.50;;;;;6.40;74.53;101921.97;3727335;38;20446;-62
2020/12/05 09:35:42;;;;;;;;;14.75;12.75;;;;;6.44;74.01;101918.91;3726380;37;20428;-63
2020/12/05 09:38:13;;;;;;;;;9.50;7.25;;;;;6.45;73.46;101917.06;3729375;38;20425;-64
2020/12/05 09:40:40;;;;;;;;;16.50;13.50;;;;;6.23;73.41;101909.91;3726390;37;20295;-64
2020/12/05 09:43:14;;;;;;;;;13.50;12.75;;;;;6.31;73.55;101913.66;3729195;38;20422;-64
2020/12/05 09:45:40;;;;;;;;;12.75;11.00;;;;;6.34;73.73;101919.78;3734435;38;20459;-62
2020/12/05 09:48:07;;;;;;;;;15.25;14.25;;;;;6.39;73.50;101920.25;3728307;38;20314;-63
2020/12/05 09:50:34;;;;;;;;;13.00;13.00;;;;;6.37;73.35;101917.69;3726569;38;20351;-64
2020/12/05 09:53:00;;;;;;;;;13.50;13.50;;;;;6.37;73.24;101922.22;3726536;37;20301;-62
2020/12/05 09:55:28;;;;;;;;;18.00;15.00;;;;;6.60;73.85;101924.75;3726315;37;20419;-64
2020/12/05 09:57:56;;;;;;;;;12.75;12.25;;;;;6.71;73.12;101920.34;3725937;38;20396;-64
2020/12/05 10:00:23;;;;;;;;;13.50;12.75;;;;;6.82;72.95;101921.16;3725852;37;20380;-64
2020/12/05 10:02:49;;;;;;;;;14.25;13.00;;;;;6.68;72.29;101909.84;3725674;38;20396;-64
2020/12/05 10:05:17;;;;;;;;;16.75;14.75;;;;;6.59;72.38;101898.00;3725913;37;20360;-65
2020/12/05 10:07:45;;;;;;;;;15.67;14.67;;;;;6.24;72.48;101901.69;3725481;37;20377;-63
2020/12/05 10:10:13;;;;;;;;;14.50;12.75;;;;;6.31;72.78;101910.97;3725919;37;20390;-64
2020/12/05 10:12:49;;;;;;;;;14.50;12.25;;;;;6.33;73.43;101926.97;3726295;37;20373;-63
2020/12/05 10:15:17;;;;;;;;;19.00;14.00;;;;;6.46;73.11;101914.25;3726199;38;20340;-63
2020/12/05 10:17:44;;;;;;;;;16.00;12.75;;;;;6.44;72.56;101912.69;3726029;38;20381;-63
2020/12/05 10:20:11;;;;;;;;;14.75;12.75;;;;;6.49;73.08;101907.78;3726451;38;20388;-63
2020/12/05 10:22:39;;;;;;;;;16.75;15.50;;;;;6.45;73.01;101892.88;3726063;37;20333;-64
2020/12/05 10:25:06;;;;;;;;;14.25;12.00;;;;;6.56;73.24;101912.53;3726214;37;20358;-63
2020/12/05 10:27:33;;;;;;;;;11.00;10.00;;;;;6.54;72.52;101901.06;3726077;37;20304;-63
2020/12/05 10:30:09;;;;;;;;;13.50;11.25;;;;;6.48;72.15;101911.44;3725843;38;20303;-64
2020/12/05 10:32:37;;;;;;;;;14.00;11.50;;;;;6.54;72.26;101909.13;3726030;38;20348;-63
2020/12/05 10:35:04;;;;;;;;;16.25;14.50;;;;;6.57;72.22;101900.81;3726074;38;20365;-63
2020/12/05 10:37:31;;;;;;;;;12.00;11.50;;;;;6.28;72.64;101910.34;3725950;37;20373;-64
2020/12/05 10:39:59;;;;;;;;;19.25;18.00;;;;;6.23;72.47;101916.12;3725235;37;20271;-63
2020/12/05 10:42:26;;;;;;;;;12.25;11.50;;;;;6.27;72.87;101911.34;3725115;38;20416;-63
2020/12/05 10:44:53;;;;;;;;;19.00;15.50;;;;;6.24;72.98;101901.69;3724446;38;20285;-63
2020/12/05 10:47:19;;;;;;;;;15.00;12.25;;;;;6.13;73.20;101909.78;3725098;37;20293;-63
2020/12/05 10:49:46;;;;;;;;;10.25;10.25;;;;;6.03;73.91;101916.84;3725568;38;20285;-62
2020/12/05 10:52:13;;;;;;;;;12.50;10.25;;;;;5.98;73.92;101919.91;3725836;37;20315;-64
2020/12/05 10:54:39;;;;;;;;;13.75;12.00;;;;;6.01;73.74;101915.25;3726114;38;20281;-62
2020/12/05 10:57:07;;;;;;;;;13.50;10.00;;;;;6.07;74.55;101901.34;3725593;38;20311;-63
2020/12/05 10:59:37;;;;;;;;;12.25;11.00;;;;;6.01;74.09;101915.25;3725903;38;20352;-61
2020/12/05 11:02:03;;;;;;;;;13.75;12.00;;;;;6.06;74.17;101913.94;3725697;37;20275;-62
2020/12/05 11:04:34;;;;;;;;;13.00;12.00;;;;;5.85;73.44;101899.44;3725858;37;20319;-62
2020/12/05 11:07:00;;;;;;;;;11.50;10.75;;;;;5.93;74.12;101910.50;3726017;38;20307;-60
2020/12/05 11:09:28;;;;;;;;;16.00;15.50;;;;;5.87;74.17;101913.62;3725689;38;20256;-61
2020/12/05 11:11:55;;;;;;;;;14.75;12.00;;;;;5.76;74.20;101913.59;3725805;38;20295;-62
2020/12/05 11:14:22;;;;;;;;;6.50;4.00;;;;;5.69;74.47;101913.25;3726103;38;20290;-62
2020/12/05 11:16:50;;;;;;;;;13.00;11.75;;;;;5.78;74.55;101930.44;3725954;37;20182;-63
2020/12/05 11:19:17;;;;;;;;;14.75;11.75;;;;;5.78;74.67;101909.81;3726103;38;20257;-64
2020/12/05 11:21:45;;;;;;;;;12.50;9.00;;;;;5.59;74.96;101914.94;3725806;38;20287;-64
2020/12/05 11:24:13;;;;;;;;;13.75;11.25;;;;;5.59;75.10;101907.72;3726051;37;20240;-62
2020/12/05 11:26:39;;;;;;;;;17.50;12.50;;;;;5.56;75.51;101888.31;3726435;37;20264;-62
2020/12/05 11:29:07;;;;;;;;;10.25;8.75;;;;;5.59;75.31;101907.72;3726145;37;20237;-62
2020/12/05 11:31:35;;;;;;;;;14.50;11.00;;;;;5.58;75.67;101907.84;3726124;38;20178;-63
2020/12/05 11:34:04;;;;;;;;;13.00;11.25;;;;;5.40;75.45;101909.25;3726061;37;20252;-64